sensor_id;sensor_type;location;lat;lon;timestamp;temperature;humidity
16964;DHT22;8598;50.508;10.436;2023-12-20T00:01:11;3.90;99.90
16964;DHT22;8598;50.508;10.436;2023-12-20T00:03:37;3.90;99.90
16964;DHT22;8598;50.508;10.436;2023-12-20T00:06:04;3.90;99.90
16964;DHT22;8598;50.508;10.436;2023-12-20T00:08:31;3.90;99.90
16964;DHT22;8598;50.508;10.436;2023-12-20T00:10:56;3.90;99.90
16964;DHT22;8598;50.508;10.436;2023-12-20T00:13:24;3.90;99.90
16964;DHT22;8598;50.508;10.436;2023-12-20T00:15:51;3.90;99.90
16964;DHT22;8598;50.508;10.436;2023-12-20T00:18:17;3.90;99.90
16964;DHT22;8598;50.508;10.436;2023-12-20T00:20:44;4.20;99.90
16964;DHT22;8598;50.508;10.436;2023-12-20T00:23:11;3.90;99.90
16964;DHT22;8598;50.508;10.436;2023-12-20T00:25:37;4.00;99.90
16964;DHT22;8598;50.508;10.436;2023-12-20T00:28:04;4.00;99.90
16964;DHT22;8598;50.508;10.436;2023-12-20T00:30:32;4.00;99.90
16964;DHT22;8598;50.508;10.436;2023-12-20T00:32:59;4.00;99.90
16964;DHT22;8598;50.508;10.436;2023-12-20T00:35:25;4.00;99.90
16964;DHT22;8598;50.508;10.436;2023-12-20T00:37:52;3.90;99.90
16964;DHT22;8598;50.508;10.436;2023-12-20T00:40:18;4.00;99.90
16964;DHT22;8598;50.508;10.436;2023-12-20T00:42:46;3.90;99.90
16964;DHT22;8598;50.508;10.436;2023-12-20T00:45:12;4.00;99.90
16964;DHT22;8598;50.508;10.436;2023-12-20T00:47:41;4.60;99.90
16964;DHT22;8598;50.508;10.436;2023-12-20T00:50:08;4.00;99.90
16964;DHT22;8598;50.508;10.436;2023-12-20T00:52:35;4.00;99.90
16964;DHT22;8598;50.508;10.436;2023-12-20T00:55:02;4.00;99.90
16964;DHT22;8598;50.508;10.436;2023-12-20T00:57:29;4.00;99.90
16964;DHT22;8598;50.508;10.436;2023-12-20T00:59:56;3.90;99.90
16964;DHT22;8598;50.508;10.436;2023-12-20T01:02:23;3.90;99.90
16964;DHT22;8598;50.508;10.436;2023-12-20T01:04:51;3.90;99.90
16964;DHT22;8598;50.508;10.436;2023-12-20T01:07:17;4.10;99.90
16964;DHT22;8598;50.508;10.436;2023-12-20T01:09:44;3.90;99.90
16964;DHT22;8598;50.508;10.436;2023-12-20T01:12:10;3.80;99.90
16964;DHT22;8598;50.508;10.436;2023-12-20T01:14:37;3.90;99.90
16964;DHT22;8598;50.508;10.436;2023-12-20T01:17:05;3.90;99.90
16964;DHT22;8598;50.508;10.436;2023-12-20T01:19:31;3.90;99.90
16964;DHT22;8598;50.508;10.436;2023-12-20T01:21:59;3.80;99.90
16964;DHT22;8598;50.508;10.436;2023-12-20T01:24:26;3.90;99.90
16964;DHT22;8598;50.508;10.436;2023-12-20T01:26:52;3.80;99.90
16964;DHT22;8598;50.508;10.436;2023-12-20T01:29:19;3.80;99.90
16964;DHT22;8598;50.508;10.436;2023-12-20T01:31:45;3.80;99.90
16964;DHT22;8598;50.508;10.436;2023-12-20T01:34:12;3.80;99.90
16964;DHT22;8598;50.508;10.436;2023-12-20T01:36:39;4.30;99.90
16964;DHT22;8598;50.508;10.436;2023-12-20T01:39:07;3.80;99.90
16964;DHT22;8598;50.508;10.436;2023-12-20T01:41:33;4.40;99.90
16964;DHT22;8598;50.508;10.436;2023-12-20T01:44:00;3.70;99.90
16964;DHT22;8598;50.508;10.436;2023-12-20T01:46:27;3.70;99.90
16964;DHT22;8598;50.508;10.436;2023-12-20T01:48:53;3.70;99.90
16964;DHT22;8598;50.508;10.436;2023-12-20T01:51:21;3.70;99.90
16964;DHT22;8598;50.508;10.436;2023-12-20T01:53:48;3.70;99.90
16964;DHT22;8598;50.508;10.436;2023-12-20T01:56:16;3.80;99.90
16964;DHT22;8598;50.508;10.436;2023-12-20T01:58:44;3.70;99.90
16964;DHT22;8598;50.508;10.436;2023-12-20T02:01:11;3.80;99.90
16964;DHT22;8598;50.508;10.436;2023-12-20T02:03:39;3.70;99.90
16964;DHT22;8598;50.508;10.436;2023-12-20T02:06:06;3.80;99.90
16964;DHT22;8598;50.508;10.436;2023-12-20T02:08:33;3.70;99.90
16964;DHT22;8598;50.508;10.436;2023-12-20T02:11:00;4.30;99.90
16964;DHT22;8598;50.508;10.436;2023-12-20T02:13:28;4.30;99.90
16964;DHT22;8598;50.508;10.436;2023-12-20T02:15:55;4.30;99.90
16964;DHT22;8598;50.508;10.436;2023-12-20T02:18:20;4.40;99.90
16964;DHT22;8598;50.508;10.436;2023-12-20T02:20:47;3.80;99.90
16964;DHT22;8598;50.508;10.436;2023-12-20T02:23:15;3.60;99.90
16964;DHT22;8598;50.508;10.436;2023-12-20T02:25:42;3.60;99.90
16964;DHT22;8598;50.508;10.436;2023-12-20T02:28:09;3.60;99.90
16964;DHT22;8598;50.508;10.436;2023-12-20T02:30:35;3.70;99.90
16964;DHT22;8598;50.508;10.436;2023-12-20T02:33:04;4.10;99.90
16964;DHT22;8598;50.508;10.436;2023-12-20T02:35:34;3.70;99.90
16964;DHT22;8598;50.508;10.436;2023-12-20T02:38:00;3.70;99.90
16964;DHT22;8598;50.508;10.436;2023-12-20T02:40:28;3.70;99.90
16964;DHT22;8598;50.508;10.436;2023-12-20T02:42:55;3.70;99.90
16964;DHT22;8598;50.508;10.436;2023-12-20T02:45:21;3.70;99.90
16964;DHT22;8598;50.508;10.436;2023-12-20T02:47:48;3.70;99.90
16964;DHT22;8598;50.508;10.436;2023-12-20T02:50:14;3.70;99.90
16964;DHT22;8598;50.508;10.436;2023-12-20T02:52:44;3.70;99.90
16964;DHT22;8598;50.508;10.436;2023-12-20T02:55:10;4.30;99.90
16964;DHT22;8598;50.508;10.436;2023-12-20T02:57:38;4.10;99.90
16964;DHT22;8598;50.508;10.436;2023-12-20T03:00:08;3.70;99.90
16964;DHT22;8598;50.508;10.436;2023-12-20T03:02:34;3.70;99.90
16964;DHT22;8598;50.508;10.436;2023-12-20T03:05:01;3.70;99.90
16964;DHT22;8598;50.508;10.436;2023-12-20T03:07:28;3.70;99.90
16964;DHT22;8598;50.508;10.436;2023-12-20T03:09:55;3.70;99.90
16964;DHT22;8598;50.508;10.436;2023-12-20T03:12:21;3.70;99.90
16964;DHT22;8598;50.508;10.436;2023-12-20T03:14:49;3.70;99.90
16964;DHT22;8598;50.508;10.436;2023-12-20T03:17:16;3.70;99.90
16964;DHT22;8598;50.508;10.436;2023-12-20T03:19:42;3.70;99.90
16964;DHT22;8598;50.508;10.436;2023-12-20T03:22:09;3.70;99.90
16964;DHT22;8598;50.508;10.436;2023-12-20T03:24:36;3.90;99.90
16964;DHT22;8598;50.508;10.436;2023-12-20T03:27:02;4.40;99.90
16964;DHT22;8598;50.508;10.436;2023-12-20T03:29:29;3.70;99.90
16964;DHT22;8598;50.508;10.436;2023-12-20T03:31:57;4.50;99.90
16964;DHT22;8598;50.508;10.436;2023-12-20T03:34:24;3.70;99.90
16964;DHT22;8598;50.508;10.436;2023-12-20T03:36:50;4.20;99.90
16964;DHT22;8598;50.508;10.436;2023-12-20T03:39:17;4.40;99.90
16964;DHT22;8598;50.508;10.436;2023-12-20T03:41:44;3.80;99.90
16964;DHT22;8598;50.508;10.436;2023-12-20T03:44:10;3.70;99.90
16964;DHT22;8598;50.508;10.436;2023-12-20T03:46:37;4.30;99.90
16964;DHT22;8598;50.508;10.436;2023-12-20T03:49:05;3.70;99.90
16964;DHT22;8598;50.508;10.436;2023-12-20T03:51:31;3.80;99.90
16964;DHT22;8598;50.508;10.436;2023-12-20T03:53:58;3.70;99.90
16964;DHT22;8598;50.508;10.436;2023-12-20T03:56:24;3.80;99.90
16964;DHT22;8598;50.508;10.436;2023-12-20T03:58:51;4.50;99.90
16964;DHT22;8598;50.508;10.436;2023-12-20T04:01:17;3.70;99.90
16964;DHT22;8598;50.508;10.436;2023-12-20T04:03:44;4.10;99.90
16964;DHT22;8598;50.508;10.436;2023-12-20T04:06:16;3.70;99.90
16964;DHT22;8598;50.508;10.436;2023-12-20T04:08:43;3.70;99.90
16964;DHT22;8598;50.508;10.436;2023-12-20T04:11:09;3.90;99.90
16964;DHT22;8598;50.508;10.436;2023-12-20T04:13:35;3.80;99.90
16964;DHT22;8598;50.508;10.436;2023-12-20T04:16:02;3.80;99.90
16964;DHT22;8598;50.508;10.436;2023-12-20T04:18:29;3.90;99.90
16964;DHT22;8598;50.508;10.436;2023-12-20T04:20:57;3.80;99.90
16964;DHT22;8598;50.508;10.436;2023-12-20T04:23:25;3.80;99.90
16964;DHT22;8598;50.508;10.436;2023-12-20T04:25:51;3.90;99.90
16964;DHT22;8598;50.508;10.436;2023-12-20T04:28:18;3.80;99.90
16964;DHT22;8598;50.508;10.436;2023-12-20T04:30:45;3.80;99.90
16964;DHT22;8598;50.508;10.436;2023-12-20T04:33:11;4.40;99.90
16964;DHT22;8598;50.508;10.436;2023-12-20T04:35:38;3.90;99.90
16964;DHT22;8598;50.508;10.436;2023-12-20T04:38:06;4.30;99.90
16964;DHT22;8598;50.508;10.436;2023-12-20T04:40:34;4.00;99.90
16964;DHT22;8598;50.508;10.436;2023-12-20T04:43:00;4.30;99.90
16964;DHT22;8598;50.508;10.436;2023-12-20T04:45:27;4.20;99.90
16964;DHT22;8598;50.508;10.436;2023-12-20T04:47:54;4.10;99.90
16964;DHT22;8598;50.508;10.436;2023-12-20T04:50:21;4.30;99.90
16964;DHT22;8598;50.508;10.436;2023-12-20T04:52:48;4.10;99.90
16964;DHT22;8598;50.508;10.436;2023-12-20T04:55:14;4.10;99.90
16964;DHT22;8598;50.508;10.436;2023-12-20T04:57:42;4.20;99.90
16964;DHT22;8598;50.508;10.436;2023-12-20T05:00:10;4.20;99.90
16964;DHT22;8598;50.508;10.436;2023-12-20T05:02:37;4.20;99.90
16964;DHT22;8598;50.508;10.436;2023-12-20T05:05:04;4.30;99.90
16964;DHT22;8598;50.508;10.436;2023-12-20T05:07:31;4.30;99.90
16964;DHT22;8598;50.508;10.436;2023-12-20T05:09:58;4.80;99.90
16964;DHT22;8598;50.508;10.436;2023-12-20T05:12:24;4.40;99.90
16964;DHT22;8598;50.508;10.436;2023-12-20T05:14:54;4.40;99.90
16964;DHT22;8598;50.508;10.436;2023-12-20T05:17:20;4.50;99.90
16964;DHT22;8598;50.508;10.436;2023-12-20T05:19:47;4.50;99.90
16964;DHT22;8598;50.508;10.436;2023-12-20T05:22:14;4.70;99.90
16964;DHT22;8598;50.508;10.436;2023-12-20T05:24:40;4.70;99.90
16964;DHT22;8598;50.508;10.436;2023-12-20T05:27:07;4.70;99.90
16964;DHT22;8598;50.508;10.436;2023-12-20T05:29:33;4.70;99.90
16964;DHT22;8598;50.508;10.436;2023-12-20T05:32:01;4.70;99.90
16964;DHT22;8598;50.508;10.436;2023-12-20T05:34:29;4.80;99.90
16964;DHT22;8598;50.508;10.436;2023-12-20T05:36:55;4.80;99.90
16964;DHT22;8598;50.508;10.436;2023-12-20T05:39:22;5.10;99.90
16964;DHT22;8598;50.508;10.436;2023-12-20T05:41:48;4.80;99.90
16964;DHT22;8598;50.508;10.436;2023-12-20T05:44:15;4.80;99.90
16964;DHT22;8598;50.508;10.436;2023-12-20T05:46:42;4.80;99.90
16964;DHT22;8598;50.508;10.436;2023-12-20T05:49:10;4.80;99.90
16964;DHT22;8598;50.508;10.436;2023-12-20T05:51:37;4.80;99.90
16964;DHT22;8598;50.508;10.436;2023-12-20T05:54:03;4.90;99.90
16964;DHT22;8598;50.508;10.436;2023-12-20T05:56:30;4.90;99.90
16964;DHT22;8598;50.508;10.436;2023-12-20T05:58:57;4.90;99.90
16964;DHT22;8598;50.508;10.436;2023-12-20T06:01:24;4.90;99.90
16964;DHT22;8598;50.508;10.436;2023-12-20T06:03:50;4.90;99.90
16964;DHT22;8598;50.508;10.436;2023-12-20T06:06:18;5.50;99.90
16964;DHT22;8598;50.508;10.436;2023-12-20T06:08:45;4.90;99.90
16964;DHT22;8598;50.508;10.436;2023-12-20T06:11:11;4.80;99.90
16964;DHT22;8598;50.508;10.436;2023-12-20T06:13:38;5.20;99.90
16964;DHT22;8598;50.508;10.436;2023-12-20T06:16:06;4.70;99.90
16964;DHT22;8598;50.508;10.436;2023-12-20T06:18:32;4.70;99.90
16964;DHT22;8598;50.508;10.436;2023-12-20T06:20:59;4.80;99.90
16964;DHT22;8598;50.508;10.436;2023-12-20T06:23:27;4.70;99.90
16964;DHT22;8598;50.508;10.436;2023-12-20T06:25:53;4.70;99.90
16964;DHT22;8598;50.508;10.436;2023-12-20T06:28:20;4.70;99.90
16964;DHT22;8598;50.508;10.436;2023-12-20T06:30:47;4.70;99.90
16964;DHT22;8598;50.508;10.436;2023-12-20T06:33:14;4.90;99.90
16964;DHT22;8598;50.508;10.436;2023-12-20T06:35:41;4.90;99.90
16964;DHT22;8598;50.508;10.436;2023-12-20T06:38:08;5.10;99.90
16964;DHT22;8598;50.508;10.436;2023-12-20T06:40:36;4.80;99.90
16964;DHT22;8598;50.508;10.436;2023-12-20T06:43:03;5.30;99.90
16964;DHT22;8598;50.508;10.436;2023-12-20T06:45:29;4.80;99.90
16964;DHT22;8598;50.508;10.436;2023-12-20T06:47:56;4.90;99.90
16964;DHT22;8598;50.508;10.436;2023-12-20T06:50:22;4.90;99.90
16964;DHT22;8598;50.508;10.436;2023-12-20T06:52:49;4.70;99.90
16964;DHT22;8598;50.508;10.436;2023-12-20T06:55:15;4.60;99.90
16964;DHT22;8598;50.508;10.436;2023-12-20T06:57:44;4.50;99.90
16964;DHT22;8598;50.508;10.436;2023-12-20T07:00:11;4.70;99.90
16964;DHT22;8598;50.508;10.436;2023-12-20T07:02:38;4.50;99.90
16964;DHT22;8598;50.508;10.436;2023-12-20T07:05:05;4.80;99.90
16964;DHT22;8598;50.508;10.436;2023-12-20T07:07:32;4.40;99.90
16964;DHT22;8598;50.508;10.436;2023-12-20T07:09:58;4.30;99.90
16964;DHT22;8598;50.508;10.436;2023-12-20T07:12:25;4.20;99.90
16964;DHT22;8598;50.508;10.436;2023-12-20T07:14:53;4.20;99.90
16964;DHT22;8598;50.508;10.436;2023-12-20T07:17:19;4.30;99.90
16964;DHT22;8598;50.508;10.436;2023-12-20T07:19:47;4.40;99.90
16964;DHT22;8598;50.508;10.436;2023-12-20T07:22:14;3.90;99.90
16964;DHT22;8598;50.508;10.436;2023-12-20T07:24:40;4.00;99.90
16964;DHT22;8598;50.508;10.436;2023-12-20T07:27:07;4.10;99.90
16964;DHT22;8598;50.508;10.436;2023-12-20T07:29:33;4.40;99.90
16964;DHT22;8598;50.508;10.436;2023-12-20T07:32:01;4.40;99.90
16964;DHT22;8598;50.508;10.436;2023-12-20T07:34:28;4.50;99.90
16964;DHT22;8598;50.508;10.436;2023-12-20T07:36:55;4.70;99.90
16964;DHT22;8598;50.508;10.436;2023-12-20T07:39:21;4.70;99.90
16964;DHT22;8598;50.508;10.436;2023-12-20T07:41:48;4.60;99.90
16964;DHT22;8598;50.508;10.436;2023-12-20T07:44:14;4.60;99.90
16964;DHT22;8598;50.508;10.436;2023-12-20T07:46:41;4.60;99.90
16964;DHT22;8598;50.508;10.436;2023-12-20T07:49:09;4.60;99.90
16964;DHT22;8598;50.508;10.436;2023-12-20T07:51:36;4.70;99.90
16964;DHT22;8598;50.508;10.436;2023-12-20T07:54:03;4.90;99.90
16964;DHT22;8598;50.508;10.436;2023-12-20T07:56:30;4.80;99.90
16964;DHT22;8598;50.508;10.436;2023-12-20T07:58:56;4.80;99.90
16964;DHT22;8598;50.508;10.436;2023-12-20T08:01:23;4.70;99.90
16964;DHT22;8598;50.508;10.436;2023-12-20T08:03:50;4.70;99.90
16964;DHT22;8598;50.508;10.436;2023-12-20T08:06:18;4.80;99.90
16964;DHT22;8598;50.508;10.436;2023-12-20T08:08:44;4.70;99.90
16964;DHT22;8598;50.508;10.436;2023-12-20T08:11:11;4.70;99.90
16964;DHT22;8598;50.508;10.436;2023-12-20T08:13:38;4.60;99.90
16964;DHT22;8598;50.508;10.436;2023-12-20T08:16:05;4.50;99.90
16964;DHT22;8598;50.508;10.436;2023-12-20T08:18:32;4.50;99.90
16964;DHT22;8598;50.508;10.436;2023-12-20T08:20:59;4.50;99.90
16964;DHT22;8598;50.508;10.436;2023-12-20T08:23:28;4.60;99.90
16964;DHT22;8598;50.508;10.436;2023-12-20T08:25:54;5.10;99.90
16964;DHT22;8598;50.508;10.436;2023-12-20T08:28:21;4.60;99.90
16964;DHT22;8598;50.508;10.436;2023-12-20T08:30:48;4.70;99.90
16964;DHT22;8598;50.508;10.436;2023-12-20T08:33:18;4.60;99.90
16964;DHT22;8598;50.508;10.436;2023-12-20T08:35:45;4.60;99.90
16964;DHT22;8598;50.508;10.436;2023-12-20T08:38:12;4.60;99.90
16964;DHT22;8598;50.508;10.436;2023-12-20T08:40:40;4.70;99.90
16964;DHT22;8598;50.508;10.436;2023-12-20T08:43:06;4.70;99.90
16964;DHT22;8598;50.508;10.436;2023-12-20T08:45:33;5.20;99.90
16964;DHT22;8598;50.508;10.436;2023-12-20T08:48:00;5.10;99.90
16964;DHT22;8598;50.508;10.436;2023-12-20T08:50:26;4.70;99.90
16964;DHT22;8598;50.508;10.436;2023-12-20T08:52:53;4.70;99.90
16964;DHT22;8598;50.508;10.436;2023-12-20T08:55:19;5.10;99.90
16964;DHT22;8598;50.508;10.436;2023-12-20T08:57:47;4.60;99.90
16964;DHT22;8598;50.508;10.436;2023-12-20T09:00:15;4.70;99.90
16964;DHT22;8598;50.508;10.436;2023-12-20T09:02:41;4.80;99.90
16964;DHT22;8598;50.508;10.436;2023-12-20T09:05:08;4.80;99.90
16964;DHT22;8598;50.508;10.436;2023-12-20T09:07:35;4.90;99.90
16964;DHT22;8598;50.508;10.436;2023-12-20T09:10:01;4.90;99.90
16964;DHT22;8598;50.508;10.436;2023-12-20T09:12:29;4.90;99.90
16964;DHT22;8598;50.508;10.436;2023-12-20T09:14:57;5.00;99.90
16964;DHT22;8598;50.508;10.436;2023-12-20T09:17:23;5.10;99.90
16964;DHT22;8598;50.508;10.436;2023-12-20T09:19:50;5.20;99.90
16964;DHT22;8598;50.508;10.436;2023-12-20T09:22:17;5.30;99.90
16964;DHT22;8598;50.508;10.436;2023-12-20T09:24:44;5.30;99.90
16964;DHT22;8598;50.508;10.436;2023-12-20T09:27:11;5.50;99.90
16964;DHT22;8598;50.508;10.436;2023-12-20T09:29:37;5.60;99.90
16964;DHT22;8598;50.508;10.436;2023-12-20T09:32:05;5.70;99.90
16964;DHT22;8598;50.508;10.436;2023-12-20T09:34:33;5.80;99.90
16964;DHT22;8598;50.508;10.436;2023-12-20T09:36:59;5.90;99.90
16964;DHT22;8598;50.508;10.436;2023-12-20T09:39:26;6.00;99.90
16964;DHT22;8598;50.508;10.436;2023-12-20T09:42:00;6.10;99.90
16964;DHT22;8598;50.508;10.436;2023-12-20T09:44:27;6.00;99.90
16964;DHT22;8598;50.508;10.436;2023-12-20T09:46:55;6.10;99.90
16964;DHT22;8598;50.508;10.436;2023-12-20T09:49:25;6.20;99.90
16964;DHT22;8598;50.508;10.436;2023-12-20T09:51:54;6.20;99.90
16964;DHT22;8598;50.508;10.436;2023-12-20T09:54:21;6.20;99.90
16964;DHT22;8598;50.508;10.436;2023-12-20T09:56:48;6.50;99.90
16964;DHT22;8598;50.508;10.436;2023-12-20T09:59:15;6.70;99.90
16964;DHT22;8598;50.508;10.436;2023-12-20T10:01:42;6.50;99.90
16964;DHT22;8598;50.508;10.436;2023-12-20T10:04:10;6.60;99.90
16964;DHT22;8598;50.508;10.436;2023-12-20T10:06:40;6.60;99.90
16964;DHT22;8598;50.508;10.436;2023-12-20T10:09:06;6.60;99.90
16964;DHT22;8598;50.508;10.436;2023-12-20T10:11:35;6.50;99.90
16964;DHT22;8598;50.508;10.436;2023-12-20T10:14:03;6.40;99.90
16964;DHT22;8598;50.508;10.436;2023-12-20T10:16:30;6.80;99.90
16964;DHT22;8598;50.508;10.436;2023-12-20T10:18:56;7.10;99.90
16964;DHT22;8598;50.508;10.436;2023-12-20T10:21:23;7.10;99.90
16964;DHT22;8598;50.508;10.436;2023-12-20T10:23:53;7.30;99.90
16964;DHT22;8598;50.508;10.436;2023-12-20T10:26:20;7.20;99.90
16964;DHT22;8598;50.508;10.436;2023-12-20T10:28:50;7.10;99.90
16964;DHT22;8598;50.508;10.436;2023-12-20T10:31:26;7.10;99.90
16964;DHT22;8598;50.508;10.436;2023-12-20T10:33:53;7.00;99.90
16964;DHT22;8598;50.508;10.436;2023-12-20T10:36:19;7.10;99.90
16964;DHT22;8598;50.508;10.436;2023-12-20T10:38:48;7.20;99.90
16964;DHT22;8598;50.508;10.436;2023-12-20T10:41:21;7.10;99.90
16964;DHT22;8598;50.508;10.436;2023-12-20T10:43:51;7.00;99.90
16964;DHT22;8598;50.508;10.436;2023-12-20T10:46:19;6.90;99.90
16964;DHT22;8598;50.508;10.436;2023-12-20T10:48:46;6.70;99.90
16964;DHT22;8598;50.508;10.436;2023-12-20T10:51:14;6.70;99.90
16964;DHT22;8598;50.508;10.436;2023-12-20T10:53:44;6.60;99.90
16964;DHT22;8598;50.508;10.436;2023-12-20T10:56:13;6.60;99.90
16964;DHT22;8598;50.508;10.436;2023-12-20T10:58:44;6.50;99.90
16964;DHT22;8598;50.508;10.436;2023-12-20T11:01:13;6.40;99.90
16964;DHT22;8598;50.508;10.436;2023-12-20T11:03:43;6.30;99.90
16964;DHT22;8598;50.508;10.436;2023-12-20T11:06:26;6.30;99.90
16964;DHT22;8598;50.508;10.436;2023-12-20T11:09:00;6.20;99.90
16964;DHT22;8598;50.508;10.436;2023-12-20T11:11:39;6.30;99.90
16964;DHT22;8598;50.508;10.436;2023-12-20T11:14:15;6.30;99.90
16964;DHT22;8598;50.508;10.436;2023-12-20T11:16:42;6.30;99.90
16964;DHT22;8598;50.508;10.436;2023-12-20T11:19:11;6.30;99.90
16964;DHT22;8598;50.508;10.436;2023-12-20T11:21:39;6.50;99.90
16964;DHT22;8598;50.508;10.436;2023-12-20T11:24:06;6.40;99.90
16964;DHT22;8598;50.508;10.436;2023-12-20T11:26:33;6.40;99.90
16964;DHT22;8598;50.508;10.436;2023-12-20T11:29:35;6.50;99.90
16964;DHT22;8598;50.508;10.436;2023-12-20T11:32:02;6.50;99.90
16964;DHT22;8598;50.508;10.436;2023-12-20T11:34:32;6.50;99.90
16964;DHT22;8598;50.508;10.436;2023-12-20T11:36:59;6.40;99.90
16964;DHT22;8598;50.508;10.436;2023-12-20T11:39:26;6.20;99.90
16964;DHT22;8598;50.508;10.436;2023-12-20T11:41:55;6.20;99.90
16964;DHT22;8598;50.508;10.436;2023-12-20T11:44:23;6.20;99.90
16964;DHT22;8598;50.508;10.436;2023-12-20T11:46:52;6.20;99.90
16964;DHT22;8598;50.508;10.436;2023-12-20T11:49:23;6.30;99.90
16964;DHT22;8598;50.508;10.436;2023-12-20T11:51:50;6.20;99.90
16964;DHT22;8598;50.508;10.436;2023-12-20T11:54:16;6.30;99.90
16964;DHT22;8598;50.508;10.436;2023-12-20T11:56:43;6.20;99.90
16964;DHT22;8598;50.508;10.436;2023-12-20T11:59:10;6.20;99.90
16964;DHT22;8598;50.508;10.436;2023-12-20T12:01:37;6.20;99.90
16964;DHT22;8598;50.508;10.436;2023-12-20T12:04:05;6.10;99.90
16964;DHT22;8598;50.508;10.436;2023-12-20T12:06:32;6.10;99.90
16964;DHT22;8598;50.508;10.436;2023-12-20T12:08:58;6.20;99.90
16964;DHT22;8598;50.508;10.436;2023-12-20T12:11:25;6.10;99.90
16964;DHT22;8598;50.508;10.436;2023-12-20T12:13:52;6.10;99.90
16964;DHT22;8598;50.508;10.436;2023-12-20T12:16:20;6.10;99.90
16964;DHT22;8598;50.508;10.436;2023-12-20T12:18:54;6.10;99.90
16964;DHT22;8598;50.508;10.436;2023-12-20T12:21:22;6.10;99.90
16964;DHT22;8598;50.508;10.436;2023-12-20T12:23:49;6.00;99.90
16964;DHT22;8598;50.508;10.436;2023-12-20T12:26:15;6.00;99.90
16964;DHT22;8598;50.508;10.436;2023-12-20T12:28:42;6.00;99.90
16964;DHT22;8598;50.508;10.436;2023-12-20T12:31:12;6.00;99.90
16964;DHT22;8598;50.508;10.436;2023-12-20T12:33:39;6.10;99.90
16964;DHT22;8598;50.508;10.436;2023-12-20T12:36:07;6.10;99.90
16964;DHT22;8598;50.508;10.436;2023-12-20T12:38:35;6.10;99.90
16964;DHT22;8598;50.508;10.436;2023-12-20T12:41:02;6.10;99.90
16964;DHT22;8598;50.508;10.436;2023-12-20T12:43:28;6.00;99.90
16964;DHT22;8598;50.508;10.436;2023-12-20T12:45:55;6.00;99.90
16964;DHT22;8598;50.508;10.436;2023-12-20T12:48:21;6.00;99.90
16964;DHT22;8598;50.508;10.436;2023-12-20T12:50:48;6.10;99.90
16964;DHT22;8598;50.508;10.436;2023-12-20T12:53:17;6.00;99.90
16964;DHT22;8598;50.508;10.436;2023-12-20T12:55:45;6.10;99.90
16964;DHT22;8598;50.508;10.436;2023-12-20T12:58:12;6.00;99.90
16964;DHT22;8598;50.508;10.436;2023-12-20T13:00:38;6.00;99.90
16964;DHT22;8598;50.508;10.436;2023-12-20T13:03:05;6.00;99.90
16964;DHT22;8598;50.508;10.436;2023-12-20T13:05:31;5.90;99.90
16964;DHT22;8598;50.508;10.436;2023-12-20T13:07:58;6.00;99.90
16964;DHT22;8598;50.508;10.436;2023-12-20T13:10:25;6.00;99.90
16964;DHT22;8598;50.508;10.436;2023-12-20T13:12:53;6.00;99.90
16964;DHT22;8598;50.508;10.436;2023-12-20T13:15:19;6.00;99.90
16964;DHT22;8598;50.508;10.436;2023-12-20T13:17:46;6.00;99.90
16964;DHT22;8598;50.508;10.436;2023-12-20T13:20:12;6.00;99.90
16964;DHT22;8598;50.508;10.436;2023-12-20T13:22:39;6.00;99.90
16964;DHT22;8598;50.508;10.436;2023-12-20T13:25:06;6.00;99.90
16964;DHT22;8598;50.508;10.436;2023-12-20T13:27:33;6.00;99.90
16964;DHT22;8598;50.508;10.436;2023-12-20T13:30:01;6.00;99.90
16964;DHT22;8598;50.508;10.436;2023-12-20T13:32:28;6.00;99.90
16964;DHT22;8598;50.508;10.436;2023-12-20T13:34:55;6.00;99.90
16964;DHT22;8598;50.508;10.436;2023-12-20T13:37:21;5.90;99.90
16964;DHT22;8598;50.508;10.436;2023-12-20T13:39:48;5.90;99.90
16964;DHT22;8598;50.508;10.436;2023-12-20T13:42:15;5.90;99.90
16964;DHT22;8598;50.508;10.436;2023-12-20T13:44:41;5.90;99.90
16964;DHT22;8598;50.508;10.436;2023-12-20T13:47:10;5.90;99.90
16964;DHT22;8598;50.508;10.436;2023-12-20T13:49:37;5.90;99.90
16964;DHT22;8598;50.508;10.436;2023-12-20T13:52:04;5.80;99.90
16964;DHT22;8598;50.508;10.436;2023-12-20T13:54:30;5.80;99.90
16964;DHT22;8598;50.508;10.436;2023-12-20T13:56:57;5.80;99.90
16964;DHT22;8598;50.508;10.436;2023-12-20T13:59:24;5.70;99.90
16964;DHT22;8598;50.508;10.436;2023-12-20T14:01:51;5.70;99.90
16964;DHT22;8598;50.508;10.436;2023-12-20T14:04:20;5.70;99.90
16964;DHT22;8598;50.508;10.436;2023-12-20T14:06:47;5.70;99.90
16964;DHT22;8598;50.508;10.436;2023-12-20T14:09:13;5.60;99.90
16964;DHT22;8598;50.508;10.436;2023-12-20T14:11:41;5.60;99.90
16964;DHT22;8598;50.508;10.436;2023-12-20T14:14:08;5.60;99.90
16964;DHT22;8598;50.508;10.436;2023-12-20T14:16:35;5.50;99.90
16964;DHT22;8598;50.508;10.436;2023-12-20T14:19:01;5.60;99.90
16964;DHT22;8598;50.508;10.436;2023-12-20T14:21:30;5.60;99.90
16964;DHT22;8598;50.508;10.436;2023-12-20T14:23:56;5.60;99.90
16964;DHT22;8598;50.508;10.436;2023-12-20T14:26:23;5.50;99.90
16964;DHT22;8598;50.508;10.436;2023-12-20T14:28:50;5.40;99.90
16964;DHT22;8598;50.508;10.436;2023-12-20T14:31:16;5.50;99.90
16964;DHT22;8598;50.508;10.436;2023-12-20T14:33:43;5.40;99.90
16964;DHT22;8598;50.508;10.436;2023-12-20T14:36:09;5.50;99.90
16964;DHT22;8598;50.508;10.436;2023-12-20T14:38:37;5.50;99.90
16964;DHT22;8598;50.508;10.436;2023-12-20T14:41:04;5.50;99.90
16964;DHT22;8598;50.508;10.436;2023-12-20T14:43:34;5.50;99.90
16964;DHT22;8598;50.508;10.436;2023-12-20T14:46:00;5.50;99.90
16964;DHT22;8598;50.508;10.436;2023-12-20T14:48:27;5.50;99.90
16964;DHT22;8598;50.508;10.436;2023-12-20T14:50:54;5.50;99.90
16964;DHT22;8598;50.508;10.436;2023-12-20T14:53:21;5.50;99.90
16964;DHT22;8598;50.508;10.436;2023-12-20T14:55:49;5.50;99.90
16964;DHT22;8598;50.508;10.436;2023-12-20T14:58:16;5.60;99.90
16964;DHT22;8598;50.508;10.436;2023-12-20T15:00:42;5.60;99.90
16964;DHT22;8598;50.508;10.436;2023-12-20T15:03:10;5.50;99.90
16964;DHT22;8598;50.508;10.436;2023-12-20T15:05:37;5.60;99.90
16964;DHT22;8598;50.508;10.436;2023-12-20T15:08:05;5.50;99.90
16964;DHT22;8598;50.508;10.436;2023-12-20T15:10:31;5.60;99.90
16964;DHT22;8598;50.508;10.436;2023-12-20T15:12:59;5.60;99.90
16964;DHT22;8598;50.508;10.436;2023-12-20T15:15:26;5.60;99.90
16964;DHT22;8598;50.508;10.436;2023-12-20T15:17:54;5.60;99.90
16964;DHT22;8598;50.508;10.436;2023-12-20T15:20:20;5.60;99.90
16964;DHT22;8598;50.508;10.436;2023-12-20T15:22:47;5.50;99.90
16964;DHT22;8598;50.508;10.436;2023-12-20T15:25:14;5.50;99.90
16964;DHT22;8598;50.508;10.436;2023-12-20T15:27:46;5.50;99.90
16964;DHT22;8598;50.508;10.436;2023-12-20T15:30:17;5.50;99.90
16964;DHT22;8598;50.508;10.436;2023-12-20T15:32:44;5.50;99.90
16964;DHT22;8598;50.508;10.436;2023-12-20T15:35:11;5.50;99.90
16964;DHT22;8598;50.508;10.436;2023-12-20T15:37:38;5.50;99.90
16964;DHT22;8598;50.508;10.436;2023-12-20T15:40:06;5.40;99.90
16964;DHT22;8598;50.508;10.436;2023-12-20T15:42:35;5.40;99.90
16964;DHT22;8598;50.508;10.436;2023-12-20T15:45:02;5.40;99.90